sensor_id;sensor_type;location;lat;lon;timestamp;pressure;altitude;pressure_sealevel;temperature;humidity
52105;BME280;38103;42.776;23.112;2023-08-31T00:02:05;93497.66;;;16.93;95.81
52105;BME280;38103;42.776;23.112;2023-08-31T00:04:31;93489.25;;;17.05;94.58
52105;BME280;38103;42.776;23.112;2023-08-31T00:06:56;93496.91;;;17.12;94.02
52105;BME280;38103;42.776;23.112;2023-08-31T00:09:25;93497.69;;;17.18;93.48
52105;BME280;38103;42.776;23.112;2023-08-31T00:11:50;93500.56;;;17.22;93.86
52105;BME280;38103;42.776;23.112;2023-08-31T00:14:17;93499.25;;;17.19;93.52
52105;BME280;38103;42.776;23.112;2023-08-31T00:16:42;93493.44;;;17.12;94.25
52105;BME280;38103;42.776;23.112;2023-08-31T00:19:08;93495.03;;;17.13;95.85
52105;BME280;38103;42.776;23.112;2023-08-31T00:21:33;93499.25;;;17.19;94.26
52105;BME280;38103;42.776;23.112;2023-08-31T00:23:59;93510.16;;;17.23;93.55
52105;BME280;38103;42.776;23.112;2023-08-31T00:26:24;93510.56;;;17.11;92.75
52105;BME280;38103;42.776;23.112;2023-08-31T00:28:50;93506.34;;;17.04;93.40
52105;BME280;38103;42.776;23.112;2023-08-31T00:31:15;93521.38;;;17.00;92.71
52105;BME280;38103;42.776;23.112;2023-08-31T00:33:41;93514.25;;;17.15;92.72
52105;BME280;38103;42.776;23.112;2023-08-31T00:36:06;93473.13;;;16.91;91.33
52105;BME280;38103;42.776;23.112;2023-08-31T00:38:32;93509.94;;;17.19;92.16
52105;BME280;38103;42.776;23.112;2023-08-31T00:40:58;93509.28;;;17.27;90.75
52105;BME280;38103;42.776;23.112;2023-08-31T00:43:23;93508.16;;;17.34;90.44
52105;BME280;38103;42.776;23.112;2023-08-31T00:45:51;93501.63;;;17.40;89.64
52105;BME280;38103;42.776;23.112;2023-08-31T00:48:17;93501.13;;;17.38;89.82
52105;BME280;38103;42.776;23.112;2023-08-31T00:50:47;93516.59;;;17.41;90.32
52105;BME280;38103;42.776;23.112;2023-08-31T00:53:14;93510.69;;;17.44;90.45
52105;BME280;38103;42.776;23.112;2023-08-31T00:55:40;93512.88;;;17.42;92.97
52105;BME280;38103;42.776;23.112;2023-08-31T00:58:07;93504.47;;;17.29;90.67
52105;BME280;38103;42.776;23.112;2023-08-31T01:01:07;93515.59;;;16.93;92.40
52105;BME280;38103;42.776;23.112;2023-08-31T01:11:49;93523.06;;;16.41;94.87
52105;BME280;38103;42.776;23.112;2023-08-31T01:14:23;93484.31;;;16.19;94.82
52105;BME280;38103;42.776;23.112;2023-08-31T01:16:50;93535.50;;;16.51;95.02
52105;BME280;38103;42.776;23.112;2023-08-31T01:22:11;93510.78;;;16.11;98.90
52105;BME280;38103;42.776;23.112;2023-08-31T01:24:38;93530.31;;;16.01;100.00
52105;BME280;38103;42.776;23.112;2023-08-31T01:27:05;93533.63;;;15.87;100.00
52105;BME280;38103;42.776;23.112;2023-08-31T01:29:30;93527.22;;;15.88;100.00
52105;BME280;38103;42.776;23.112;2023-08-31T01:31:56;93529.28;;;15.96;100.00
52105;BME280;38103;42.776;23.112;2023-08-31T01:34:21;93536.44;;;16.06;100.00
52105;BME280;38103;42.776;23.112;2023-08-31T01:36:48;93540.66;;;16.13;100.00
52105;BME280;38103;42.776;23.112;2023-08-31T01:39:25;93535.63;;;16.06;97.68
52105;BME280;38103;42.776;23.112;2023-08-31T01:41:58;93527.25;;;15.83;100.00
52105;BME280;38103;42.776;23.112;2023-08-31T01:44:26;93526.84;;;15.65;100.00
52105;BME280;38103;42.776;23.112;2023-08-31T01:46:53;93538.13;;;15.51;99.46
52105;BME280;38103;42.776;23.112;2023-08-31T01:49:21;93532.78;;;15.51;99.54
52105;BME280;38103;42.776;23.112;2023-08-31T01:51:47;93513.22;;;15.26;99.98
52105;BME280;38103;42.776;23.112;2023-08-31T01:54:12;93533.97;;;15.35;100.00
52105;BME280;38103;42.776;23.112;2023-08-31T01:56:38;93531.34;;;15.29;99.50
52105;BME280;38103;42.776;23.112;2023-08-31T01:59:03;93532.13;;;15.30;99.43
52105;BME280;38103;42.776;23.112;2023-08-31T02:01:29;93536.16;;;15.22;99.10
52105;BME280;38103;42.776;23.112;2023-08-31T02:03:54;93534.78;;;15.35;99.74
52105;BME280;38103;42.776;23.112;2023-08-31T02:06:20;93549.31;;;15.53;98.60
52105;BME280;38103;42.776;23.112;2023-08-31T02:08:45;93556.25;;;15.49;98.39
52105;BME280;38103;42.776;23.112;2023-08-31T02:11:12;93558.72;;;15.40;99.26
52105;BME280;38103;42.776;23.112;2023-08-31T02:13:38;93555.31;;;15.24;100.00
52105;BME280;38103;42.776;23.112;2023-08-31T02:16:03;93548.91;;;15.30;99.92
52105;BME280;38103;42.776;23.112;2023-08-31T02:18:29;93551.34;;;15.22;100.00
52105;BME280;38103;42.776;23.112;2023-08-31T02:20:54;93547.41;;;15.08;100.00
52105;BME280;38103;42.776;23.112;2023-08-31T02:23:20;93544.22;;;15.06;100.00
52105;BME280;38103;42.776;23.112;2023-08-31T02:25:45;93547.94;;;15.05;100.00
52105;BME280;38103;42.776;23.112;2023-08-31T02:28:10;93547.19;;;15.00;100.00
52105;BME280;38103;42.776;23.112;2023-08-31T02:30:36;93537.34;;;14.79;100.00
52105;BME280;38103;42.776;23.112;2023-08-31T02:33:02;93537.94;;;14.71;100.00
52105;BME280;38103;42.776;23.112;2023-08-31T02:35:28;93538.47;;;14.68;100.00
52105;BME280;38103;42.776;23.112;2023-08-31T02:37:53;93535.81;;;14.62;100.00
52105;BME280;38103;42.776;23.112;2023-08-31T02:40:18;93538.50;;;14.57;100.00
52105;BME280;38103;42.776;23.112;2023-08-31T02:42:46;93545.41;;;14.58;100.00
52105;BME280;38103;42.776;23.112;2023-08-31T02:45:12;93538.50;;;14.57;100.00
52105;BME280;38103;42.776;23.112;2023-08-31T02:47:37;93542.47;;;14.60;100.00
52105;BME280;38103;42.776;23.112;2023-08-31T02:50:03;93547.53;;;14.56;100.00
52105;BME280;38103;42.776;23.112;2023-08-31T02:52:28;93559.25;;;14.55;100.00
52105;BME280;38103;42.776;23.112;2023-08-31T02:54:54;93551.00;;;14.51;100.00
52105;BME280;38103;42.776;23.112;2023-08-31T02:57:20;93565.09;;;14.57;100.00
52105;BME280;38103;42.776;23.112;2023-08-31T02:59:49;93555.00;;;14.54;100.00
52105;BME280;38103;42.776;23.112;2023-08-31T03:02:15;93555.53;;;14.51;100.00
52105;BME280;38103;42.776;23.112;2023-08-31T03:04:40;93555.00;;;14.54;100.00
52105;BME280;38103;42.776;23.112;2023-08-31T03:07:06;93552.84;;;14.56;100.00
52105;BME280;38103;42.776;23.112;2023-08-31T03:09:31;93547.53;;;14.56;100.00
52105;BME280;38103;42.776;23.112;2023-08-31T03:11:56;93555.25;;;14.63;100.00
52105;BME280;38103;42.776;23.112;2023-08-31T03:14:22;93561.34;;;14.74;100.00
52105;BME280;38103;42.776;23.112;2023-08-31T03:16:47;93555.44;;;14.82;100.00
52105;BME280;38103;42.776;23.112;2023-08-31T03:19:14;93554.38;;;14.94;100.00
52105;BME280;38103;42.776;23.112;2023-08-31T03:21:39;93566.63;;;14.84;100.00
52105;BME280;38103;42.776;23.112;2023-08-31T03:24:05;93565.06;;;14.78;100.00
52105;BME280;38103;42.776;23.112;2023-08-31T03:26:30;93572.00;;;14.69;100.00
52105;BME280;38103;42.776;23.112;2023-08-31T03:28:56;93569.38;;;14.48;100.00
52105;BME280;38103;42.776;23.112;2023-08-31T03:31:22;93561.41;;;14.37;100.00
52105;BME280;38103;42.776;23.112;2023-08-31T03:33:47;93567.78;;;14.36;100.00
52105;BME280;38103;42.776;23.112;2023-08-31T03:36:12;93577.38;;;14.37;100.00
52105;BME280;38103;42.776;23.112;2023-08-31T03:38:38;93574.13;;;14.56;100.00
52105;BME280;38103;42.776;23.112;2023-08-31T03:41:03;93553.41;;;14.58;100.00
52105;BME280;38103;42.776;23.112;2023-08-31T03:43:29;93571.72;;;14.65;100.00
52105;BME280;38103;42.776;23.112;2023-08-31T03:45:56;93571.44;;;14.77;100.00
52105;BME280;38103;42.776;23.112;2023-08-31T03:48:23;93575.19;;;14.71;100.00
52105;BME280;38103;42.776;23.112;2023-08-31T03:50:52;93586.09;;;14.64;100.00
52105;BME280;38103;42.776;23.112;2023-08-31T03:53:18;93587.97;;;14.63;100.00
52105;BME280;38103;42.776;23.112;2023-08-31T03:55:44;93562.44;;;14.52;100.00
52105;BME280;38103;42.776;23.112;2023-08-31T03:58:09;93591.13;;;14.76;100.00
52105;BME280;38103;42.776;23.112;2023-08-31T04:00:34;93594.91;;;14.49;100.00
52105;BME280;38103;42.776;23.112;2023-08-31T04:03:00;93598.13;;;14.40;100.00
52105;BME280;38103;42.776;23.112;2023-08-31T04:05:25;93600.22;;;14.38;100.00
52105;BME280;38103;42.776;23.112;2023-08-31T04:07:51;93608.72;;;14.46;100.00
52105;BME280;38103;42.776;23.112;2023-08-31T04:10:16;93610.84;;;14.49;100.00
52105;BME280;38103;42.776;23.112;2023-08-31T04:12:41;93617.78;;;14.50;100.00
52105;BME280;38103;42.776;23.112;2023-08-31T04:15:08;93596.75;;;14.53;100.00
52105;BME280;38103;42.776;23.112;2023-08-31T04:17:34;93610.81;;;14.70;100.00
52105;BME280;38103;42.776;23.112;2023-08-31T04:19:59;93621.16;;;14.97;100.00
52105;BME280;38103;42.776;23.112;2023-08-31T04:22:25;93623.31;;;15.01;100.00
52105;BME280;38103;42.776;23.112;2023-08-31T04:24:53;93581.56;;;14.75;100.00
52105;BME280;38103;42.776;23.112;2023-08-31T04:27:18;93628.81;;;15.30;100.00
52105;BME280;38103;42.776;23.112;2023-08-31T04:29:44;93633.75;;;15.58;100.00
52105;BME280;38103;42.776;23.112;2023-08-31T04:32:09;93629.09;;;15.80;98.33
52105;BME280;38103;42.776;23.112;2023-08-31T04:34:34;93626.09;;;15.92;99.37
52105;BME280;38103;42.776;23.112;2023-08-31T04:37:01;93632.09;;;16.13;99.28
52105;BME280;38103;42.776;23.112;2023-08-31T04:39:27;93636.78;;;16.32;97.31
52105;BME280;38103;42.776;23.112;2023-08-31T04:41:52;93638.91;;;16.35;95.24
52105;BME280;38103;42.776;23.112;2023-08-31T04:44:17;93642.59;;;16.39;93.37
52105;BME280;38103;42.776;23.112;2023-08-31T04:46:43;93643.59;;;16.49;96.06
52105;BME280;38103;42.776;23.112;2023-08-31T04:49:09;93644.28;;;16.60;94.88
52105;BME280;38103;42.776;23.112;2023-08-31T04:51:35;93641.22;;;16.77;94.73
52105;BME280;38103;42.776;23.112;2023-08-31T04:54:04;93639.94;;;16.99;93.65
52105;BME280;38103;42.776;23.112;2023-08-31T04:56:33;93638.50;;;17.37;92.74
52105;BME280;38103;42.776;23.112;2023-08-31T04:58:59;93648.72;;;17.54;89.76
52105;BME280;38103;42.776;23.112;2023-08-31T05:01:25;93645.06;;;17.69;89.16
52105;BME280;38103;42.776;23.112;2023-08-31T05:03:50;93644.28;;;18.07;90.50
52105;BME280;38103;42.776;23.112;2023-08-31T05:06:16;93627.38;;;18.31;85.92
52105;BME280;38103;42.776;23.112;2023-08-31T05:08:41;93634.19;;;18.57;84.25
52105;BME280;38103;42.776;23.112;2023-08-31T05:11:06;93634.25;;;18.85;83.12
52105;BME280;38103;42.776;23.112;2023-08-31T05:13:32;93636.13;;;19.33;81.70
52105;BME280;38103;42.776;23.112;2023-08-31T05:15:57;93637.28;;;19.69;79.03
52105;BME280;38103;42.776;23.112;2023-08-31T05:18:23;93641.38;;;20.03;77.48
52105;BME280;38103;42.776;23.112;2023-08-31T05:20:48;93641.88;;;20.42;74.67
52105;BME280;38103;42.776;23.112;2023-08-31T05:23:14;93609.66;;;20.42;73.66
52105;BME280;38103;42.776;23.112;2023-08-31T05:25:43;93650.28;;;20.73;71.73
52105;BME280;38103;42.776;23.112;2023-08-31T05:28:09;93649.16;;;20.97;71.34
52105;BME280;38103;42.776;23.112;2023-08-31T05:30:34;93642.94;;;21.10;66.60
52105;BME280;38103;42.776;23.112;2023-08-31T05:33:00;93646.34;;;21.34;68.14
52105;BME280;38103;42.776;23.112;2023-08-31T05:35:26;93637.88;;;21.59;65.94
52105;BME280;38103;42.776;23.112;2023-08-31T05:37:51;93641.84;;;21.70;64.63
52105;BME280;38103;42.776;23.112;2023-08-31T05:40:17;93646.19;;;21.89;62.58
52105;BME280;38103;42.776;23.112;2023-08-31T05:42:43;93646.00;;;21.76;66.01
52105;BME280;38103;42.776;23.112;2023-08-31T05:45:09;93645.03;;;21.72;65.67
52105;BME280;38103;42.776;23.112;2023-08-31T05:47:35;93646.28;;;21.66;64.85
52105;BME280;38103;42.776;23.112;2023-08-31T05:50:01;93648.81;;;21.71;64.25
52105;BME280;38103;42.776;23.112;2023-08-31T05:52:26;93639.81;;;21.67;66.79
52105;BME280;38103;42.776;23.112;2023-08-31T05:54:52;93648.16;;;21.57;67.56
52105;BME280;38103;42.776;23.112;2023-08-31T05:57:19;93645.94;;;21.59;68.82
52105;BME280;38103;42.776;23.112;2023-08-31T05:59:44;93642.97;;;21.69;65.89
52105;BME280;38103;42.776;23.112;2023-08-31T06:02:09;93651.00;;;21.51;68.93
52105;BME280;38103;42.776;23.112;2023-08-31T06:04:35;93656.13;;;21.30;64.91
52105;BME280;38103;42.776;23.112;2023-08-31T06:07:00;93642.72;;;21.39;66.79
52105;BME280;38103;42.776;23.112;2023-08-31T06:09:26;93657.22;;;21.70;68.41
52105;BME280;38103;42.776;23.112;2023-08-31T06:11:51;93666.56;;;21.72;64.80
52105;BME280;38103;42.776;23.112;2023-08-31T06:14:16;93671.44;;;21.61;62.71
52105;BME280;38103;42.776;23.112;2023-08-31T06:16:42;93679.63;;;22.06;61.56
52105;BME280;38103;42.776;23.112;2023-08-31T06:19:07;93680.72;;;21.96;63.77
52105;BME280;38103;42.776;23.112;2023-08-31T06:21:32;93679.97;;;22.13;64.78
52105;BME280;38103;42.776;23.112;2023-08-31T06:23:58;93676.16;;;22.68;63.96
52105;BME280;38103;42.776;23.112;2023-08-31T06:26:23;93687.41;;;22.79;62.07
52105;BME280;38103;42.776;23.112;2023-08-31T06:28:48;93688.03;;;22.66;65.73
52105;BME280;38103;42.776;23.112;2023-08-31T06:31:14;93693.81;;;21.80;68.31
52105;BME280;38103;42.776;23.112;2023-08-31T06:33:40;93693.50;;;21.40;71.85
52105;BME280;38103;42.776;23.112;2023-08-31T06:36:05;93704.03;;;21.69;71.57
52105;BME280;38103;42.776;23.112;2023-08-31T06:38:31;93704.41;;;21.85;70.19
52105;BME280;38103;42.776;23.112;2023-08-31T06:40:56;93707.72;;;21.82;71.16
52105;BME280;38103;42.776;23.112;2023-08-31T06:43:24;93705.28;;;22.12;68.01
52105;BME280;38103;42.776;23.112;2023-08-31T06:45:52;93716.06;;;22.12;65.63
52105;BME280;38103;42.776;23.112;2023-08-31T06:48:18;93712.63;;;22.74;64.29
52105;BME280;38103;42.776;23.112;2023-08-31T06:50:43;93711.34;;;22.98;62.94
52105;BME280;38103;42.776;23.112;2023-08-31T06:53:08;93706.91;;;22.49;64.72
52105;BME280;38103;42.776;23.112;2023-08-31T06:55:34;93716.25;;;22.33;64.97
52105;BME280;38103;42.776;23.112;2023-08-31T06:58:01;93711.34;;;22.62;65.41
52105;BME280;38103;42.776;23.112;2023-08-31T07:00:27;93715.56;;;23.17;63.48
52105;BME280;38103;42.776;23.112;2023-08-31T07:02:53;93716.28;;;23.44;61.54
52105;BME280;38103;42.776;23.112;2023-08-31T07:05:18;93707.69;;;23.03;60.33
52105;BME280;38103;42.776;23.112;2023-08-31T07:07:51;93712.44;;;23.63;60.75
52105;BME280;38103;42.776;23.112;2023-08-31T07:10:17;93714.06;;;23.55;61.38
52105;BME280;38103;42.776;23.112;2023-08-31T07:12:42;93711.25;;;23.33;63.19
52105;BME280;38103;42.776;23.112;2023-08-31T07:15:08;93714.75;;;23.25;63.70
52105;BME280;38103;42.776;23.112;2023-08-31T07:17:33;93715.91;;;23.72;59.79
52105;BME280;38103;42.776;23.112;2023-08-31T07:19:59;93715.25;;;23.75;61.67
52105;BME280;38103;42.776;23.112;2023-08-31T07:22:24;93716.19;;;24.40;61.29
52105;BME280;38103;42.776;23.112;2023-08-31T07:24:49;93718.75;;;24.92;60.96
52105;BME280;38103;42.776;23.112;2023-08-31T07:27:15;93716.56;;;25.41;57.00
52105;BME280;38103;42.776;23.112;2023-08-31T07:29:40;93725.38;;;25.50;52.80
52105;BME280;38103;42.776;23.112;2023-08-31T07:32:06;93728.31;;;25.70;54.54
52105;BME280;38103;42.776;23.112;2023-08-31T07:34:31;93725.63;;;25.70;50.60
52105;BME280;38103;42.776;23.112;2023-08-31T07:36:56;93728.66;;;25.56;51.45
52105;BME280;38103;42.776;23.112;2023-08-31T07:39:22;93727.28;;;25.03;54.86
52105;BME280;38103;42.776;23.112;2023-08-31T07:41:47;93730.44;;;25.64;52.06
52105;BME280;38103;42.776;23.112;2023-08-31T07:44:13;93716.84;;;25.73;50.82
52105;BME280;38103;42.776;23.112;2023-08-31T07:46:38;93728.25;;;25.92;51.02
52105;BME280;38103;42.776;23.112;2023-08-31T07:49:03;93727.91;;;25.81;49.29
52105;BME280;38103;42.776;23.112;2023-08-31T07:51:29;93734.22;;;25.85;51.81
52105;BME280;38103;42.776;23.112;2023-08-31T07:53:55;93702.03;;;25.71;52.75
52105;BME280;38103;42.776;23.112;2023-08-31T07:56:22;93738.28;;;26.16;49.02
52105;BME280;38103;42.776;23.112;2023-08-31T07:58:49;93734.47;;;25.92;48.33
52105;BME280;38103;42.776;23.112;2023-08-31T08:01:15;93737.66;;;25.48;48.19
52105;BME280;38103;42.776;23.112;2023-08-31T08:03:40;93739.75;;;25.88;46.93
52105;BME280;38103;42.776;23.112;2023-08-31T08:06:06;93735.25;;;26.05;46.68
52105;BME280;38103;42.776;23.112;2023-08-31T08:08:31;93727.88;;;26.31;44.97
52105;BME280;38103;42.776;23.112;2023-08-31T08:10:56;93741.25;;;26.65;45.91
52105;BME280;38103;42.776;23.112;2023-08-31T08:13:22;93745.59;;;26.95;43.90
52105;BME280;38103;42.776;23.112;2023-08-31T08:15:47;93736.75;;;27.27;40.21
52105;BME280;38103;42.776;23.112;2023-08-31T08:18:13;93738.38;;;27.44;39.06
52105;BME280;38103;42.776;23.112;2023-08-31T08:20:38;93733.66;;;27.57;39.19
52105;BME280;38103;42.776;23.112;2023-08-31T08:23:05;93739.16;;;27.61;40.56
52105;BME280;38103;42.776;23.112;2023-08-31T08:25:30;93739.84;;;27.58;38.31
52105;BME280;38103;42.776;23.112;2023-08-31T08:27:56;93739.81;;;27.70;38.56
52105;BME280;38103;42.776;23.112;2023-08-31T08:30:21;93740.50;;;27.67;37.64
52105;BME280;38103;42.776;23.112;2023-08-31T08:32:46;93679.97;;;27.50;37.62
52105;BME280;38103;42.776;23.112;2023-08-31T08:35:12;93742.53;;;28.03;39.34
52105;BME280;38103;42.776;23.112;2023-08-31T08:37:37;93729.09;;;28.10;36.07
52105;BME280;38103;42.776;23.112;2023-08-31T08:40:03;93737.50;;;28.21;35.99
52105;BME280;38103;42.776;23.112;2023-08-31T08:42:32;93698.28;;;27.86;35.70
52105;BME280;38103;42.776;23.112;2023-08-31T08:45:05;93743.53;;;28.30;37.89
52105;BME280;38103;42.776;23.112;2023-08-31T08:47:32;93691.72;;;27.87;34.96
52105;BME280;38103;42.776;23.112;2023-08-31T08:49:58;93728.50;;;28.00;36.97
52105;BME280;38103;42.776;23.112;2023-08-31T08:52:26;93746.88;;;28.23;37.70
52105;BME280;38103;42.776;23.112;2023-08-31T08:54:51;93740.25;;;28.41;36.53
52105;BME280;38103;42.776;23.112;2023-08-31T08:57:17;93741.38;;;28.56;36.69
52105;BME280;38103;42.776;23.112;2023-08-31T08:59:43;93730.59;;;28.60;33.02
52105;BME280;38103;42.776;23.112;2023-08-31T09:02:10;93742.63;;;28.42;35.07
52105;BME280;38103;42.776;23.112;2023-08-31T09:04:36;93724.16;;;28.32;35.47
52105;BME280;38103;42.776;23.112;2023-08-31T09:07:01;93740.91;;;28.34;37.88
52105;BME280;38103;42.776;23.112;2023-08-31T09:09:27;93739.31;;;28.33;36.97
52105;BME280;38103;42.776;23.112;2023-08-31T09:11:53;93745.91;;;28.32;35.42
52105;BME280;38103;42.776;23.112;2023-08-31T09:14:20;93737.50;;;28.21;36.47
52105;BME280;38103;42.776;23.112;2023-08-31T09:16:47;93738.91;;;28.15;35.36
52105;BME280;38103;42.776;23.112;2023-08-31T09:21:45;93738.75;;;27.91;33.53
52105;BME280;38103;42.776;23.112;2023-08-31T09:24:11;93732.28;;;27.80;35.26
52105;BME280;38103;42.776;23.112;2023-08-31T09:26:48;93673.09;;;27.24;34.88
52105;BME280;38103;42.776;23.112;2023-08-31T09:29:13;93742.47;;;27.38;38.31
52105;BME280;38103;42.776;23.112;2023-08-31T09:31:45;93741.97;;;27.48;38.01
52105;BME280;38103;42.776;23.112;2023-08-31T09:34:12;93744.94;;;27.43;38.05
52105;BME280;38103;42.776;23.112;2023-08-31T09:36:38;93741.59;;;27.33;36.81
52105;BME280;38103;42.776;23.112;2023-08-31T09:39:05;93744.56;;;27.28;37.42
52105;BME280;38103;42.776;23.112;2023-08-31T09:41:31;93746.84;;;27.26;39.27
52105;BME280;38103;42.776;23.112;2023-08-31T09:43:56;93747.81;;;27.05;38.09
52105;BME280;38103;42.776;23.112;2023-08-31T09:46:39;93731.25;;;27.23;39.15
52105;BME280;38103;42.776;23.112;2023-08-31T09:49:05;93739.59;;;27.47;38.15
52105;BME280;38103;42.776;23.112;2023-08-31T09:51:30;93737.59;;;27.60;37.19
52105;BME280;38103;42.776;23.112;2023-08-31T09:53:57;93709.31;;;27.44;37.27
52105;BME280;38103;42.776;23.112;2023-08-31T09:56:25;93743.28;;;27.54;36.71
52105;BME280;38103;42.776;23.112;2023-08-31T09:58:54;93736.34;;;27.41;37.51
52105;BME280;38103;42.776;23.112;2023-08-31T10:01:19;93753.03;;;27.27;36.83
52105;BME280;38103;42.776;23.112;2023-08-31T10:03:45;93747.13;;;27.08;37.94
52105;BME280;38103;42.776;23.112;2023-08-31T10:06:11;93742.38;;;27.05;38.13
52105;BME280;38103;42.776;23.112;2023-08-31T10:08:38;93740.41;;;26.89;37.39
52105;BME280;38103;42.776;23.112;2023-08-31T10:11:05;93644.13;;;26.26;38.55
52105;BME280;38103;42.776;23.112;2023-08-31T10:13:32;93737.31;;;26.75;37.54
52105;BME280;38103;42.776;23.112;2023-08-31T10:16:04;93741.09;;;26.86;38.47
52105;BME280;38103;42.776;23.112;2023-08-31T10:18:30;93742.50;;;26.80;38.87
52105;BME280;38103;42.776;23.112;2023-08-31T10:20:56;93747.31;;;26.87;38.88
52105;BME280;38103;42.776;23.112;2023-08-31T10:23:22;93717.22;;;26.63;39.86
52105;BME280;38103;42.776;23.112;2023-08-31T10:28:19;93745.88;;;26.77;40.04
52105;BME280;38103;42.776;23.112;2023-08-31T10:31:01;93746.38;;;26.66;39.58
52105;BME280;38103;42.776;23.112;2023-08-31T10:33:28;93751.59;;;26.59;40.27
52105;BME280;38103;42.776;23.112;2023-08-31T10:35:56;93747.06;;;26.51;40.36
52105;BME280;38103;42.776;23.112;2023-08-31T10:38:39;93751.59;;;26.47;40.20
52105;BME280;38103;42.776;23.112;2023-08-31T10:49:13;93761.72;;;26.75;39.53
52105;BME280;38103;42.776;23.112;2023-08-31T10:51:46;93755.56;;;26.78;39.18
52105;BME280;38103;42.776;23.112;2023-08-31T10:54:23;93759.13;;;26.66;39.91
52105;BME280;38103;42.776;23.112;2023-08-31T10:59:17;93768.53;;;26.43;41.70
52105;BME280;38103;42.776;23.112;2023-08-31T11:01:59;93772.38;;;26.30;44.09
52105;BME280;38103;42.776;23.112;2023-08-31T11:04:26;93738.28;;;26.04;44.79
52105;BME280;38103;42.776;23.112;2023-08-31T11:07:18;93767.19;;;26.25;43.80
52105;BME280;38103;42.776;23.112;2023-08-31T11:09:44;93772.72;;;26.28;45.30
52105;BME280;38103;42.776;23.112;2023-08-31T11:12:11;93771.81;;;26.24;45.09
52105;BME280;38103;42.776;23.112;2023-08-31T11:14:37;93771.00;;;26.23;44.42
52105;BME280;38103;42.776;23.112;2023-08-31T11:17:03;93767.38;;;26.32;43.59
52105;BME280;38103;42.776;23.112;2023-08-31T11:19:30;93770.31;;;26.52;45.68
52105;BME280;38103;42.776;23.112;2023-08-31T11:21:56;93774.91;;;26.76;45.09
52105;BME280;38103;42.776;23.112;2023-08-31T11:24:22;93773.63;;;26.86;41.92
52105;BME280;38103;42.776;23.112;2023-08-31T11:26:52;93776.13;;;26.92;44.27
52105;BME280;38103;42.776;23.112;2023-08-31T11:29:18;93776.13;;;26.92;42.93
52105;BME280;38103;42.776;23.112;2023-08-31T11:31:43;93775.22;;;26.87;41.36
52105;BME280;38103;42.776;23.112;2023-08-31T11:34:12;93775.47;;;26.82;42.78
52105;BME280;38103;42.776;23.112;2023-08-31T11:36:39;93770.44;;;26.55;43.03
52105;BME280;38103;42.776;23.112;2023-08-31T11:39:06;93747.75;;;26.22;42.17
52105;BME280;38103;42.776;23.112;2023-08-31T11:41:35;93771.00;;;26.23;40.80
52105;BME280;38103;42.776;23.112;2023-08-31T11:44:03;93773.50;;;26.16;43.12
52105;BME280;38103;42.776;23.112;2023-08-31T11:46:30;93767.19;;;26.12;40.94
52105;BME280;38103;42.776;23.112;2023-08-31T11:48:56;93764.69;;;26.07;39.47
52105;BME280;38103;42.776;23.112;2023-08-31T11:51:22;93763.13;;;25.93;41.15
52105;BME280;38103;42.776;23.112;2023-08-31T11:53:48;93754.88;;;25.89;40.86
52105;BME280;38103;42.776;23.112;2023-08-31T11:56:13;93753.44;;;25.92;40.54
52105;BME280;38103;42.776;23.112;2023-08-31T11:58:42;93751.84;;;25.91;39.56
52105;BME280;38103;42.776;23.112;2023-08-31T12:01:08;93746.88;;;25.93;43.02
52105;BME280;38103;42.776;23.112;2023-08-31T12:03:43;93745.03;;;25.85;42.03
52105;BME280;38103;42.776;23.112;2023-08-31T12:06:18;93747.53;;;25.90;37.57
52105;BME280;38103;42.776;23.112;2023-08-31T12:08:47;93736.47;;;25.95;38.80
52105;BME280;38103;42.776;23.112;2023-08-31T12:11:13;93735.59;;;26.04;39.50
52105;BME280;38103;42.776;23.112;2023-08-31T12:13:43;93734.22;;;26.10;38.66
52105;BME280;38103;42.776;23.112;2023-08-31T12:16:14;93731.63;;;26.01;40.20
52105;BME280;38103;42.776;23.112;2023-08-31T12:18:41;93741.44;;;25.93;40.22
52105;BME280;38103;42.776;23.112;2023-08-31T12:21:06;93711.84;;;25.63;40.72
52105;BME280;38103;42.776;23.112;2023-08-31T12:23:31;93706.53;;;25.41;41.93
52105;BME280;38103;42.776;23.112;2023-08-31T12:25:57;93725.19;;;25.81;41.36
52105;BME280;38103;42.776;23.112;2023-08-31T12:28:23;93721.59;;;26.02;42.53
52105;BME280;38103;42.776;23.112;2023-08-31T12:30:53;93723.41;;;26.10;41.27
52105;BME280;38103;42.776;23.112;2023-08-31T12:33:20;93719.53;;;26.11;37.37
52105;BME280;38103;42.776;23.112;2023-08-31T12:35:46;93728.34;;;26.20;38.64
52105;BME280;38103;42.776;23.112;2023-08-31T12:38:12;93725.19;;;26.43;39.51
52105;BME280;38103;42.776;23.112;2023-08-31T12:40:38;93717.69;;;26.53;38.63
52105;BME280;38103;42.776;23.112;2023-08-31T12:43:04;93719.50;;;26.61;38.20
52105;BME280;38103;42.776;23.112;2023-08-31T12:45:32;93724.31;;;26.68;36.33
52105;BME280;38103;42.776;23.112;2023-08-31T12:47:58;93725.13;;;26.69;38.05
52105;BME280;38103;42.776;23.112;2023-08-31T12:50:24;93735.97;;;26.69;37.79
52105;BME280;38103;42.776;23.112;2023-08-31T12:52:49;93725.31;;;26.76;36.67
52105;BME280;38103;42.776;23.112;2023-08-31T12:55:15;93724.19;;;26.77;34.40
52105;BME280;38103;42.776;23.112;2023-08-31T12:57:47;93722.75;;;26.54;35.95
52105;BME280;38103;42.776;23.112;2023-08-31T13:00:14;93735.34;;;26.47;36.62
52105;BME280;38103;42.776;23.112;2023-08-31T13:02:41;93730.69;;;26.47;36.70
52105;BME280;38103;42.776;23.112;2023-08-31T13:05:08;93730.13;;;26.29;38.52
52105;BME280;38103;42.776;23.112;2023-08-31T13:07:38;93734.00;;;26.28;37.90
52105;BME280;38103;42.776;23.112;2023-08-31T13:10:04;93736.56;;;26.37;38.83
52105;BME280;38103;42.776;23.112;2023-08-31T13:12:30;93730.59;;;26.18;37.70